Terminal Aerodrome Forecast
Issued by NWS St Louis, MO

Home | Current Version | Previous Version | Text Only | Print | Product List | Glossary On
Versions: 1 2 3 4 5 6 7 8 9 10 11 12 13 14 15 16 17 18
000
FTUS43 KLSX 151700
TAFCOU
TAF
KCOU 151739Z 1518/1618 16015G25KT P6SM BKN020
      TEMPO 1518/1521 5SM -SHRA
     FM160000 24015G25KT P6SM OVC020
     FM160900 29016G26KT P6SM OVC015=

USA.gov is the U.S. government's official web portal to all federal, state and local government web resources and services.